Time;durP1;ratioP1;P1;durP2;ratioP2;P2;SDS_P1;SDS_P2;PMS_P1;PMS_P2;Temp;Humidity;BMP_temperature;BMP_pressure;BME280_temperature;BME280_humidity;BME280_pressure;Samples;Min_cycle;Max_cycle;Signal;HPM_P1;HPM_P2
2023/09/07 00:01:22;;;;;;;11.70;8.90;;;;;;;19.24;79.38;101863.47;5028940;28;20024;-67
2023/09/07 00:03:47;;;;;;;10.75;8.80;;;;;;;19.20;79.52;101870.28;5030356;28;20021;-67
2023/09/07 00:06:12;;;;;;;11.55;8.57;;;;;;;19.23;79.56;101867.19;5035668;28;20030;-68
2023/09/07 00:08:37;;;;;;;11.40;9.00;;;;;;;19.17;79.68;101871.53;5045176;28;20035;-67
2023/09/07 00:11:04;;;;;;;12.18;9.75;;;;;;;19.20;80.09;101872.97;5036804;28;20489;-67
2023/09/07 00:13:30;;;;;;;10.32;9.02;;;;;;;19.15;80.27;101862.00;5028602;28;20029;-67
2023/09/07 00:15:58;;;;;;;11.27;9.50;;;;;;;19.13;80.71;101866.75;5034682;28;20495;-67
2023/09/07 00:18:24;;;;;;;11.90;9.77;;;;;;;19.06;80.77;101868.56;5030828;28;20021;-68
2023/09/07 00:20:49;;;;;;;14.30;9.10;;;;;;;19.00;80.63;101855.91;5030664;28;20961;-67
2023/09/07 00:23:15;;;;;;;11.90;9.57;;;;;;;18.97;80.95;101851.78;5041374;28;20020;-66
2023/09/07 00:25:41;;;;;;;11.70;9.48;;;;;;;18.91;80.98;101857.13;5031392;28;20095;-70
2023/09/07 00:28:06;;;;;;;12.10;9.40;;;;;;;18.97;81.08;101859.00;5034309;28;20024;-67
2023/09/07 00:30:31;;;;;;;11.02;9.10;;;;;;;18.92;81.15;101851.56;5044734;28;20037;-67
2023/09/07 00:32:56;;;;;;;14.13;9.25;;;;;;;18.85;81.30;101853.38;5044369;28;20025;-67
2023/09/07 00:35:22;;;;;;;12.18;8.85;;;;;;;18.84;81.26;101855.25;5036071;28;20438;-67
2023/09/07 00:37:47;;;;;;;14.48;9.57;;;;;;;18.83;81.58;101858.97;5541784;23;20055;-67
2023/09/07 00:40:12;;;;;;;12.15;9.95;;;;;;;18.81;81.53;101852.13;5048297;28;20453;-67
2023/09/07 00:42:37;;;;;;;11.30;10.02;;;;;;;18.83;81.62;101847.38;5034468;28;20049;-66
2023/09/07 00:45:03;;;;;;;13.57;9.80;;;;;;;18.76;81.84;101855.41;5024103;28;20021;-67
2023/09/07 00:47:28;;;;;;;11.55;10.02;;;;;;;18.81;82.46;101857.50;5028002;28;20119;-67
2023/09/07 00:49:54;;;;;;;14.27;10.70;;;;;;;18.84;82.32;101855.25;5043993;28;20036;-66
2023/09/07 00:52:20;;;;;;;13.13;10.88;;;;;;;18.86;82.57;101855.88;5046516;28;20028;-67
2023/09/07 00:54:45;;;;;;;16.40;10.75;;;;;;;18.84;82.73;101855.25;5046268;28;20028;-67
2023/09/07 00:57:11;;;;;;;12.65;9.60;;;;;;;18.82;82.75;101853.78;5048194;28;20110;-67
2023/09/07 00:59:36;;;;;;;14.60;10.60;;;;;;;18.81;82.80;101863.72;5036887;28;20540;-66
2023/09/07 01:02:01;;;;;;;10.70;9.02;;;;;;;18.70;81.97;101858.88;5042329;28;20057;-67
2023/09/07 01:04:27;;;;;;;14.98;10.27;;;;;;;18.62;82.18;101859.06;5042166;28;20029;-67
2023/09/07 01:07:09;;;;;;;13.27;10.05;;;;;;;18.69;82.72;101859.09;5039407;28;20048;-67
2023/09/07 01:09:36;;;;;;;13.45;10.90;;;;;;;18.64;82.73;101858.88;5041364;28;20029;-67
2023/09/07 01:12:02;;;;;;;12.68;10.38;;;;;;;18.43;82.71;101852.50;5043893;28;20036;-67
2023/09/07 01:14:27;;;;;;;10.77;9.40;;;;;;;18.50;82.68;101852.53;5040927;28;20025;-66
2023/09/07 01:16:53;;;;;;;11.57;9.60;;;;;;;18.43;82.94;101852.50;5035145;28;20009;-67
2023/09/07 01:19:19;;;;;;;12.23;10.65;;;;;;;18.48;83.20;101852.72;5047723;28;20420;-67
2023/09/07 01:21:45;;;;;;;13.00;10.75;;;;;;;18.49;83.36;101854.38;5043356;28;20021;-66
2023/09/07 01:24:12;;;;;;;12.43;11.15;;;;;;;18.51;83.64;101844.28;5044053;28;20028;-66
2023/09/07 01:26:38;;;;;;;14.93;10.98;;;;;;;18.53;83.85;101855.69;5041714;28;20032;-67
2023/09/07 01:29:05;;;;;;;18.00;11.00;;;;;;;18.46;83.62;101854.78;5044452;28;20041;-67
2023/09/07 01:31:30;;;;;;;12.90;10.30;;;;;;;18.45;83.84;101841.53;5042248;28;20025;-67
2023/09/07 01:33:55;;;;;;;12.00;10.60;;;;;;;18.47;83.55;101839.47;5036101;28;20112;-67
2023/09/07 01:36:21;;;;;;;14.10;11.18;;;;;;;18.43;83.95;101846.28;5043709;28;20477;-67
2023/09/07 01:38:46;;;;;;;11.93;10.60;;;;;;;18.37;84.04;101836.31;5042983;28;20025;-67
2023/09/07 01:41:11;;;;;;;12.02;10.35;;;;;;;18.32;83.96;101834.22;5040356;28;20028;-67
2023/09/07 01:43:37;;;;;;;16.30;11.07;;;;;;;18.29;84.11;101831.09;5043641;28;20024;-66
2023/09/07 01:46:02;;;;;;;14.95;11.70;;;;;;;18.30;83.94;101832.78;5044229;28;20036;-66
2023/09/07 01:48:28;;;;;;;14.98;10.85;;;;;;;18.27;83.79;101832.13;5043561;28;20477;-67
2023/09/07 01:50:53;;;;;;;12.90;10.52;;;;;;;18.16;84.23;101834.53;5037106;28;20030;-67
2023/09/07 01:53:19;;;;;;;13.02;10.38;;;;;;;18.08;84.21;101832.00;5046662;28;20036;-67
2023/09/07 01:55:44;;;;;;;14.43;11.18;;;;;;;18.13;84.30;101834.91;5044926;28;20025;-67
2023/09/07 01:58:10;;;;;;;15.73;11.27;;;;;;;18.06;83.87;101826.81;5046288;28;20073;-67
2023/09/07 02:00:41;;;;;;;15.35;11.55;;;;;;;18.04;84.40;101833.41;5045495;28;20035;-67
2023/09/07 02:03:06;;;;;;;14.27;12.13;;;;;;;18.11;84.79;101831.59;5046936;28;20100;-67
2023/09/07 02:05:35;;;;;;;14.70;12.60;;;;;;;18.18;85.17;101827.91;5047232;28;20113;-67
2023/09/07 02:08:00;;;;;;;14.57;12.70;;;;;;;18.24;85.16;101835.22;5044265;28;20021;-67
2023/09/07 02:10:25;;;;;;;16.60;11.85;;;;;;;18.26;85.15;101827.78;5036870;28;20017;-67
2023/09/07 02:12:51;;;;;;;14.98;12.00;;;;;;;18.30;85.27;101830.09;5043669;28;20599;-67
2023/09/07 02:15:17;;;;;;;17.38;12.52;;;;;;;18.32;85.21;101834.22;5035403;28;20045;-67
2023/09/07 02:17:44;;;;;;;16.98;13.13;;;;;;;18.34;85.11;101829.47;5031660;28;20017;-67
2023/09/07 02:20:13;;;;;;;14.18;12.38;;;;;;;18.43;85.14;101832.84;5046041;28;20032;-66
2023/09/07 02:22:38;;;;;;;14.63;12.20;;;;;;;18.47;85.12;101826.03;5036665;28;20017;-67
2023/09/07 02:25:05;;;;;;;16.00;11.98;;;;;;;18.54;84.88;101833.13;5036238;28;20037;-67
2023/09/07 02:27:31;;;;;;;13.85;11.93;;;;;;;18.55;84.97;101828.56;5041527;28;20024;-67
2023/09/07 02:29:56;;;;;;;15.82;12.07;;;;;;;18.54;84.64;101832.31;5041382;28;20090;-67
2023/09/07 02:32:22;;;;;;;15.80;12.00;;;;;;;18.59;84.36;101837.91;5038449;28;20029;-67
2023/09/07 02:34:48;;;;;;;15.57;12.23;;;;;;;18.61;84.31;101837.72;5042777;28;20039;-67
2023/09/07 02:37:14;;;;;;;14.82;12.88;;;;;;;18.64;84.33;101832.78;5042682;28;20056;-67
2023/09/07 02:39:39;;;;;;;16.10;12.80;;;;;;;18.55;83.94;101828.56;5044894;28;20025;-67
2023/09/07 02:42:05;;;;;;;18.85;12.85;;;;;;;18.52;83.75;101828.97;5042163;28;20423;-67
2023/09/07 02:44:30;;;;;;;15.40;13.27;;;;;;;18.55;84.10;101825.88;5044079;28;20599;-65
2023/09/07 02:46:55;;;;;;;15.80;12.93;;;;;;;18.50;84.12;101834.56;5042139;28;20029;-67
2023/09/07 02:49:21;;;;;;;16.33;13.07;;;;;;;18.47;83.91;101831.41;5042300;28;20052;-67
2023/09/07 02:51:46;;;;;;;16.00;11.90;;;;;;;18.39;84.10;101832.41;5044555;28;20116;-67
2023/09/07 02:54:11;;;;;;;17.13;12.55;;;;;;;18.34;83.89;101820.59;5044187;28;20551;-67
2023/09/07 02:56:36;;;;;;;17.10;13.00;;;;;;;18.32;84.09;101828.03;5045106;28;20025;-66
2023/09/07 02:59:02;;;;;;;19.48;13.75;;;;;;;18.26;84.20;101827.78;5042704;28;20064;-67
2023/09/07 03:01:28;;;;;;;15.98;13.00;;;;;;;18.25;84.00;101830.69;5045429;28;20527;-66
2023/09/07 03:03:54;;;;;;;14.00;12.32;;;;;;;18.21;84.20;101832.94;5044144;28;20017;-67
2023/09/07 03:06:20;;;;;;;17.02;12.48;;;;;;;18.20;84.20;101823.19;5043443;28;20122;-67
2023/09/07 03:08:45;;;;;;;16.65;13.00;;;;;;;18.20;84.44;101825.03;5043852;28;20067;-67
2023/09/07 03:11:11;;;;;;;16.55;13.43;;;;;;;18.16;84.30;101824.59;5043330;28;20731;-67
2023/09/07 03:13:37;;;;;;;15.57;12.38;;;;;;;18.15;84.35;101828.31;5044343;28;20033;-67
2023/09/07 03:16:03;;;;;;;14.52;12.30;;;;;;;18.16;84.33;101827.28;5037386;28;20783;-66
2023/09/07 03:18:29;;;;;;;14.45;12.35;;;;;;;18.19;84.06;101826.06;5041953;28;20025;-67
2023/09/07 03:20:55;;;;;;;18.23;12.68;;;;;;;18.17;84.10;101826.25;5046549;28;20032;-67
2023/09/07 03:23:21;;;;;;;19.33;12.55;;;;;;;18.17;84.22;101830.81;5042616;28;20102;-67
2023/09/07 03:25:47;;;;;;;16.73;12.20;;;;;;;18.17;84.02;101822.75;5038522;28;20045;-67
2023/09/07 03:28:13;;;;;;;18.17;12.95;;;;;;;18.18;84.37;101825.22;5041102;28;20028;-67
2023/09/07 03:30:38;;;;;;;15.60;11.55;;;;;;;18.18;84.59;101822.53;5041672;28;20033;-67
2023/09/07 03:33:04;;;;;;;14.57;12.40;;;;;;;18.29;84.58;101823.03;5042862;28;20486;-67
2023/09/07 03:35:30;;;;;;;14.07;12.23;;;;;;;18.32;84.51;101828.03;5040583;28;20056;-67
2023/09/07 03:37:55;;;;;;;15.65;11.90;;;;;;;18.32;84.34;101819.94;5037831;28;20060;-67
2023/09/07 03:40:20;;;;;;;16.13;12.18;;;;;;;18.36;84.29;101826.59;5042248;28;20029;-67
2023/09/07 03:42:46;;;;;;;16.65;12.25;;;;;;;18.32;84.06;101819.94;5043621;28;20386;-67
2023/09/07 03:45:11;;;;;;;15.15;12.40;;;;;;;18.40;84.06;101835.94;5041800;28;20025;-67
2023/09/07 03:47:37;;;;;;;19.55;11.75;;;;;;;18.41;83.76;101830.34;5043043;28;20025;-67
2023/09/07 03:50:03;;;;;;;15.25;12.02;;;;;;;18.44;83.64;101834.50;5044903;28;20040;-67
2023/09/07 03:52:28;;;;;;;19.17;12.10;;;;;;;18.42;83.68;101833.88;5043385;28;20033;-67
2023/09/07 03:54:55;;;;;;;17.35;11.77;;;;;;;18.44;83.43;101840.72;5045352;28;20029;-67
2023/09/07 03:57:20;;;;;;;19.80;12.23;;;;;;;18.44;83.41;101839.88;5041452;28;20623;-67
2023/09/07 03:59:48;;;;;;;16.23;12.65;;;;;;;18.44;83.19;101834.50;5040348;28;20043;-67
2023/09/07 04:02:13;;;;;;;17.88;11.73;;;;;;;18.46;83.13;101835.97;5042118;28;20025;-66
2023/09/07 04:04:38;;;;;;;15.52;11.60;;;;;;;18.45;83.14;101838.84;5041675;28;20048;-66
2023/09/07 04:07:04;;;;;;;16.23;11.15;;;;;;;18.42;83.00;101826.63;5042325;28;20025;-67
2023/09/07 04:09:29;;;;;;;15.75;11.50;;;;;;;18.44;82.89;101831.81;5042619;28;20037;-66
2023/09/07 04:11:54;;;;;;;15.30;11.18;;;;;;;18.42;82.91;101834.69;5041182;28;20464;-67
2023/09/07 04:14:20;;;;;;;15.65;11.52;;;;;;;18.38;82.80;101829.91;5040742;28;20378;-68
2023/09/07 04:16:45;;;;;;;18.25;11.50;;;;;;;18.41;82.54;101833.03;5040828;28;20036;-67
2023/09/07 04:19:10;;;;;;;14.52;11.52;;;;;;;18.39;82.56;101827.03;5044023;28;20102;-67
2023/09/07 04:21:36;;;;;;;14.85;11.15;;;;;;;18.37;82.69;101822.88;5038350;28;20456;-67
2023/09/07 04:24:01;;;;;;;20.65;11.27;;;;;;;18.33;82.38;101821.63;5040212;28;20715;-67
2023/09/07 04:26:27;;;;;;;16.58;10.80;;;;;;;18.24;82.30;101829.84;5040566;28;20029;-67
2023/09/07 04:28:52;;;;;;;12.63;10.45;;;;;;;18.18;82.12;101830.59;5039352;28;20029;-67
2023/09/07 04:31:18;;;;;;;16.50;11.55;;;;;;;18.15;82.11;101835.56;5041938;28;20036;-67
2023/09/07 04:33:43;;;;;;;14.07;11.15;;;;;;;18.08;82.46;101838.19;5041205;28;20505;-67
2023/09/07 04:36:13;;;;;;;15.95;11.88;;;;;;;18.03;82.68;101843.34;5041142;28;20075;-67
2023/09/07 04:38:39;;;;;;;15.43;11.20;;;;;;;18.01;82.63;101834.63;5040101;28;20021;-67
2023/09/07 04:41:08;;;;;;;13.05;11.45;;;;;;;17.98;83.00;101837.72;5044054;28;20094;-67
2023/09/07 04:43:34;;;;;;;16.17;11.25;;;;;;;17.93;83.17;101832.94;5043820;28;20036;-67
2023/09/07 04:45:59;;;;;;;19.63;11.88;;;;;;;17.89;83.06;101836.19;5041672;28;20990;-67
2023/09/07 04:48:24;;;;;;;19.73;11.93;;;;;;;17.88;83.55;101838.03;5042591;28;20025;-67
2023/09/07 04:51:03;;;;;;;17.48;12.60;;;;;;;17.86;83.80;101839.25;5041000;28;20032;-68
2023/09/07 04:53:30;;;;;;;;;;;;;;;17.98;83.36;101843.09;5041774;28;20028;-67
2023/09/07 04:55:55;;;;;;;18.20;11.40;;;;;;;17.82;83.62;101846.88;5041785;28;19928;-67
2023/09/07 04:58:21;;;;;;;16.73;12.20;;;;;;;17.74;83.66;101838.97;5041551;28;22101;-67
2023/09/07 05:00:46;;;;;;;14.88;11.50;;;;;;;17.74;83.56;101841.66;5040413;28;20036;-67
2023/09/07 05:03:12;;;;;;;19.90;12.75;;;;;;;17.72;84.03;101846.38;5040827;28;20035;-67
2023/09/07 05:05:38;;;;;;;17.45;12.02;;;;;;;17.65;84.25;101848.97;5043976;28;20497;-67
2023/09/07 05:08:04;;;;;;;19.05;11.73;;;;;;;17.65;84.51;101843.63;5039464;28;20033;-68
2023/09/07 05:10:32;;;;;;;17.40;12.05;;;;;;;17.64;84.74;101841.94;5043953;28;20028;-67
2023/09/07 05:12:57;;;;;;;15.50;12.35;;;;;;;17.63;84.67;101847.47;5042353;28;20029;-67
2023/09/07 05:15:23;;;;;;;19.90;12.45;;;;;;;17.60;84.99;101853.25;5041114;28;20506;-67
2023/09/07 05:17:48;;;;;;;14.13;11.80;;;;;;;17.60;85.05;101859.44;5039713;28;20116;-67
2023/09/07 05:20:13;;;;;;;18.67;13.05;;;;;;;17.59;85.32;101851.59;5042517;28;20581;-67
2023/09/07 05:22:40;;;;;;;19.23;12.50;;;;;;;17.57;85.27;101856.31;5041375;28;20039;-67
2023/09/07 05:25:06;;;;;;;16.58;12.77;;;;;;;17.59;85.42;101855.09;5040665;28;20542;-67
2023/09/07 05:27:31;;;;;;;21.58;13.38;;;;;;;17.59;85.73;101859.66;5041105;28;20108;-67
2023/09/07 05:29:56;;;;;;;17.83;12.75;;;;;;;17.61;85.77;101860.28;5047644;28;20147;-67
2023/09/07 05:32:22;;;;;;;19.05;13.02;;;;;;;17.63;85.73;101858.22;5043990;28;20426;-67
2023/09/07 05:34:47;;;;;;;17.42;13.23;;;;;;;17.64;85.88;101862.63;5040679;28;20031;-67
2023/09/07 05:37:12;;;;;;;18.70;12.93;;;;;;;17.64;85.81;101870.66;5040036;28;20040;-67
2023/09/07 05:39:37;;;;;;;19.98;12.82;;;;;;;17.68;85.84;101873.84;5033894;28;20406;-67
2023/09/07 05:42:03;;;;;;;16.48;12.95;;;;;;;17.71;86.14;101874.28;5041839;28;20021;-66
2023/09/07 05:44:28;;;;;;;19.27;13.25;;;;;;;17.76;86.11;101871.84;5036748;28;20028;-67
2023/09/07 05:46:54;;;;;;;17.10;13.27;;;;;;;17.79;86.27;101874.13;5043656;28;20143;-66
2023/09/07 05:49:19;;;;;;;18.30;13.60;;;;;;;17.82;86.31;101867.53;5040823;28;20032;-66
2023/09/07 05:51:44;;;;;;;18.13;13.55;;;;;;;17.92;86.15;101868.88;5041207;28;20040;-67
2023/09/07 05:54:10;;;;;;;22.02;13.95;;;;;;;18.02;85.85;101873.94;5045748;28;20622;-67
2023/09/07 05:56:35;;;;;;;19.80;13.43;;;;;;;18.12;86.04;101869.03;5039336;28;20108;-66
2023/09/07 05:59:00;;;;;;;24.00;13.88;;;;;;;18.19;85.83;101874.47;5040296;28;20025;-66
2023/09/07 06:01:26;;;;;;;26.58;14.20;;;;;;;18.27;85.70;101880.53;5042834;28;20102;-67
2023/09/07 06:03:51;;;;;;;20.00;14.10;;;;;;;18.39;85.50;101874.59;5043181;28;20032;-67
2023/09/07 06:06:16;;;;;;;18.02;13.80;;;;;;;18.47;85.02;101885.22;5041068;28;20017;-67
2023/09/07 06:08:41;;;;;;;19.58;13.30;;;;;;;18.54;84.75;101888.78;5051047;28;20559;-67
2023/09/07 06:11:07;;;;;;;21.73;13.93;;;;;;;18.64;84.50;101889.28;5042088;28;20025;-67
2023/09/07 06:13:32;;;;;;;18.50;13.23;;;;;;;18.69;83.82;101892.22;5042295;28;20044;-67
2023/09/07 06:16:00;;;;;;;16.83;13.23;;;;;;;18.74;83.91;101895.13;5049743;28;20100;-67
2023/09/07 06:18:25;;;;;;;18.73;13.00;;;;;;;18.80;83.70;101890.84;5047331;28;20069;-67
2023/09/07 06:20:51;;;;;;;20.40;13.38;;;;;;;18.90;83.60;101898.53;5047092;28;20021;-67
2023/09/07 06:23:16;;;;;;;20.80;13.40;;;;;;;18.99;83.14;101900.84;5046746;28;20017;-66
2023/09/07 06:25:41;;;;;;;20.98;13.52;;;;;;;19.07;83.05;101899.84;5038335;28;20025;-67
2023/09/07 06:28:06;;;;;;;20.73;14.20;;;;;;;19.15;82.70;101905.06;5039655;28;20548;-66
2023/09/07 06:30:32;;;;;;;18.85;13.48;;;;;;;19.27;82.41;101902.63;5041225;28;20075;-67
2023/09/07 06:32:57;;;;;;;19.80;13.75;;;;;;;19.32;82.52;101909.06;5044787;28;20025;-67
2023/09/07 06:35:22;;;;;;;23.65;14.23;;;;;;;19.42;82.14;101906.00;5041980;28;20036;-67
2023/09/07 06:37:47;;;;;;;21.58;13.82;;;;;;;19.49;82.17;101901.47;5048043;28;20029;-67
2023/09/07 06:40:13;;;;;;;19.40;13.40;;;;;;;19.58;81.78;101911.03;5049481;28;20058;-67
2023/09/07 06:42:39;;;;;;;23.25;14.15;;;;;;;19.65;81.13;101909.19;5045799;28;20029;-67
2023/09/07 06:45:05;;;;;;;19.42;13.48;;;;;;;19.70;80.89;101908.59;5039444;28;20026;-67
2023/09/07 06:47:30;;;;;;;19.50;14.48;;;;;;;19.75;80.77;101904.25;5045046;28;20021;-67
2023/09/07 06:49:56;;;;;;;17.52;13.43;;;;;;;19.80;80.82;101906.31;5041674;28;20040;-67
2023/09/07 06:52:22;;;;;;;23.17;13.65;;;;;;;19.81;80.27;101907.97;5047876;28;20048;-67
2023/09/07 06:54:47;;;;;;;18.95;12.80;;;;;;;19.80;79.93;101893.66;5050577;28;20052;-67
2023/09/07 06:57:12;;;;;;;22.23;14.07;;;;;;;19.86;79.73;101905.50;5040070;28;20060;-67
2023/09/07 06:59:38;;;;;;;21.38;12.85;;;;;;;19.87;79.35;101912.53;5048501;28;20075;-67
2023/09/07 07:02:04;;;;;;;21.48;12.95;;;;;;;19.91;79.42;101916.47;5044624;28;20396;-67
2023/09/07 07:04:30;;;;;;;21.75;13.25;;;;;;;19.91;79.45;101912.94;5047167;28;20071;-67
2023/09/07 07:06:55;;;;;;;21.38;12.77;;;;;;;19.95;79.05;101912.34;5049036;28;20025;-67
2023/09/07 07:09:20;;;;;;;18.48;12.52;;;;;;;20.00;78.97;101912.56;5045555;28;20021;-67
2023/09/07 07:11:45;;;;;;;19.13;12.23;;;;;;;20.04;79.07;101915.69;5046325;28;20065;-67
2023/09/07 07:14:11;;;;;;;16.58;12.57;;;;;;;20.07;78.81;101912.56;5044105;28;20035;-67
2023/09/07 07:16:38;;;;;;;16.08;12.25;;;;;;;20.10;78.52;101929.16;5042514;28;20025;-66
2023/09/07 07:19:03;;;;;;;17.52;12.65;;;;;;;20.19;78.32;101918.16;5049611;28;20020;-67
2023/09/07 07:21:28;;;;;;;18.67;12.10;;;;;;;20.22;78.11;101915.88;5040638;28;20025;-66
2023/09/07 07:23:53;;;;;;;16.80;12.48;;;;;;;20.30;78.00;101917.53;5050988;28;20017;-67
2023/09/07 07:26:19;;;;;;;21.25;12.93;;;;;;;20.32;77.52;101919.00;5045427;28;20557;-66
2023/09/07 07:28:45;;;;;;;14.48;12.05;;;;;;;20.37;77.50;101913.78;5047114;28;20025;-66
2023/09/07 07:31:10;;;;;;;15.95;12.02;;;;;;;20.41;77.51;101909.66;5048643;28;20013;-67
2023/09/07 07:33:36;;;;;;;16.95;11.65;;;;;;;20.49;77.25;101913.19;5045206;28;20679;-66
2023/09/07 07:36:02;;;;;;;19.33;11.75;;;;;;;20.53;77.08;101911.72;5038358;28;20131;-66
2023/09/07 07:38:28;;;;;;;13.32;11.35;;;;;;;20.56;76.89;101912.16;5043170;28;20386;-67
2023/09/07 07:40:53;;;;;;;18.70;11.52;;;;;;;20.62;76.83;101914.00;5046083;28;20031;-67
2023/09/07 07:43:18;;;;;;;16.23;11.02;;;;;;;20.66;76.62;101917.94;5041884;28;20043;-67
2023/09/07 07:45:44;;;;;;;15.73;11.30;;;;;;;20.68;76.30;101917.72;5041077;28;20025;-66
2023/09/07 07:48:09;;;;;;;15.13;10.85;;;;;;;20.72;76.14;101908.16;5040516;28;20013;-66
2023/09/07 07:50:40;;;;;;;15.93;11.02;;;;;;;20.82;76.13;101905.03;5048170;28;20032;-67
2023/09/07 07:53:06;;;;;;;14.57;10.98;;;;;;;20.90;75.86;101910.19;5042212;28;20048;-67
2023/09/07 07:55:38;;;;;;;17.05;11.73;;;;;;;20.99;75.85;101915.13;5041616;28;20024;-66
2023/09/07 07:58:07;;;;;;;14.13;10.18;;;;;;;21.02;75.50;101912.00;5044951;28;20025;-66
2023/09/07 08:00:33;;;;;;;14.73;10.88;;;;;;;21.11;75.37;101909.09;5045720;28;20030;-67
2023/09/07 08:02:58;;;;;;;16.27;10.52;;;;;;;21.17;75.25;101908.22;5043524;28;20036;-67
2023/09/07 08:05:23;;;;;;;13.75;9.98;;;;;;;21.20;74.93;101903.22;5044287;28;20027;-67
2023/09/07 08:07:49;;;;;;;13.65;9.93;;;;;;;21.28;74.76;101903.00;5040904;28;20028;-67
2023/09/07 08:10:14;;;;;;;17.77;10.32;;;;;;;21.31;75.07;101899.03;5043011;28;20017;-67
2023/09/07 08:12:39;;;;;;;15.50;9.80;;;;;;;21.39;74.70;101897.94;5041093;28;20021;-66
2023/09/07 08:15:05;;;;;;;13.95;10.07;;;;;;;21.45;74.41;101913.31;5046630;28;20031;-66
2023/09/07 08:17:30;;;;;;;15.45;10.48;;;;;;;21.50;74.37;101892.69;5042168;28;20363;-66
2023/09/07 08:19:56;;;;;;;12.75;8.98;;;;;;;21.56;74.18;101896.41;5042263;28;20032;-66
2023/09/07 08:22:22;;;;;;;14.68;9.60;;;;;;;21.57;73.70;101892.66;5047883;28;20363;-67
2023/09/07 08:24:48;;;;;;;13.60;9.30;;;;;;;21.61;73.11;101886.59;5040573;28;20033;-67
2023/09/07 08:27:18;;;;;;;12.45;9.35;;;;;;;21.69;73.21;101879.28;5042905;28;20028;-68
2023/09/07 08:29:47;;;;;;;14.25;9.25;;;;;;;21.75;73.17;101878.41;5039037;28;20026;-68
2023/09/07 08:32:13;;;;;;;;;;;;;;;21.80;73.36;101884.78;5048880;28;20028;-67
2023/09/07 08:34:40;;;;;;;12.65;9.15;;;;;;;21.84;73.13;101875.19;5051301;28;19963;-68
2023/09/07 08:37:08;;;;;;;12.10;8.55;;;;;;;21.90;72.75;101881.59;5040819;28;20033;-68
2023/09/07 08:39:34;;;;;;;14.03;8.53;;;;;;;21.95;71.94;101874.47;5044373;28;20035;-68
2023/09/07 08:42:00;;;;;;;11.88;8.25;;;;;;;21.99;71.82;101866.78;5044532;28;20100;-68
2023/09/07 08:44:26;;;;;;;16.88;8.48;;;;;;;22.07;71.45;101880.03;5039105;28;20025;-68
2023/09/07 08:46:52;;;;;;;12.75;8.00;;;;;;;22.16;71.49;101873.28;5040430;28;20100;-68
2023/09/07 08:49:19;;;;;;;10.70;7.65;;;;;;;22.20;71.46;101869.09;5048723;28;20051;-68
2023/09/07 08:51:45;;;;;;;16.27;7.90;;;;;;;22.28;71.11;101873.41;5044036;28;20029;-67
2023/09/07 08:54:12;;;;;;;12.43;7.13;;;;;;;22.37;71.05;101863.13;5048359;28;20025;-68
2023/09/07 08:56:37;;;;;;;12.35;7.90;;;;;;;22.43;70.98;101862.22;5039603;28;20592;-68
2023/09/07 08:59:04;;;;;;;9.85;7.28;;;;;;;22.50;70.64;101863.78;5042205;28;20028;-66
2023/09/07 09:01:31;;;;;;;11.00;7.47;;;;;;;22.53;69.24;101870.63;5043249;28;20025;-67
2023/09/07 09:03:56;;;;;;;9.10;6.93;;;;;;;22.62;69.36;101863.88;5037308;28;20021;-67
2023/09/07 09:06:22;;;;;;;9.40;6.65;;;;;;;22.70;69.51;101877.13;5047216;28;20017;-67
2023/09/07 09:08:50;;;;;;;10.48;6.22;;;;;;;22.82;69.67;101874.50;5042157;28;20547;-68
2023/09/07 09:11:16;;;;;;;9.03;6.27;;;;;;;22.87;68.79;101869.25;5047651;28;20047;-68
2023/09/07 09:13:42;;;;;;;9.27;6.68;;;;;;;22.97;68.14;101869.53;5041820;28;20022;-67
2023/09/07 09:16:08;;;;;;;14.10;6.40;;;;;;;23.05;67.84;101874.63;5043750;28;20028;-67
2023/09/07 09:18:33;;;;;;;9.27;6.07;;;;;;;23.14;67.19;101878.69;5044200;28;20032;-67
2023/09/07 09:20:59;;;;;;;8.55;6.32;;;;;;;23.20;66.16;101882.38;5044095;28;20017;-67
2023/09/07 09:23:31;;;;;;;11.02;5.57;;;;;;;23.36;66.78;101878.19;5043728;28;20028;-68
2023/09/07 09:25:56;;;;;;;8.13;6.13;;;;;;;23.47;66.97;101864.69;5042495;28;20037;-68
2023/09/07 09:28:22;;;;;;;10.48;5.93;;;;;;;23.57;66.15;101866.03;5035746;28;20068;-68
2023/09/07 09:30:48;;;;;;;7.85;6.13;;;;;;;23.72;66.13;101869.16;5042176;28;20043;-68
2023/09/07 09:33:14;;;;;;;9.77;5.72;;;;;;;23.90;65.54;101860.06;5039234;28;21081;-67
2023/09/07 09:35:42;;;;;;;11.95;6.10;;;;;;;24.02;65.32;101866.34;5046388;28;20033;-69
2023/09/07 09:38:07;;;;;;;7.80;5.97;;;;;;;24.24;65.06;101861.16;5044799;28;20027;-68
2023/09/07 09:40:36;;;;;;;8.73;5.63;;;;;;;24.40;64.23;101858.59;5044481;28;20028;-67
2023/09/07 09:43:03;;;;;;;8.85;5.80;;;;;;;24.50;64.06;101857.97;5051953;28;20393;-68
2023/09/07 09:45:29;;;;;;;7.30;5.80;;;;;;;24.70;63.61;101860.31;5045936;28;20024;-68
2023/09/07 09:47:59;;;;;;;10.85;5.55;;;;;;;24.74;63.37;101858.75;5053310;28;20522;-68
2023/09/07 09:50:25;;;;;;;8.82;5.45;;;;;;;24.77;62.32;101858.28;5047882;28;20031;-68
2023/09/07 09:52:53;;;;;;;8.23;5.85;;;;;;;24.86;61.47;101858.72;5043771;28;20018;-67
2023/09/07 09:55:18;;;;;;;7.53;5.80;;;;;;;24.89;60.57;101861.81;5048576;28;20503;-67
2023/09/07 09:57:43;;;;;;;10.27;5.45;;;;;;;25.11;61.08;101855.72;5050751;28;20051;-68
2023/09/07 10:00:25;;;;;;;8.73;5.57;;;;;;;25.19;60.39;101858.06;5049941;28;20025;-68
2023/09/07 10:03:17;;;;;;;10.55;5.10;;;;;;;25.38;60.50;101858.66;5051235;28;20104;-68
2023/09/07 10:05:44;;;;;;;7.50;5.22;;;;;;;25.53;59.57;101848.91;5041350;28;20593;-68
2023/09/07 10:08:13;;;;;;;6.55;4.78;;;;;;;25.64;59.17;101847.16;5038867;28;20028;-68
2023/09/07 10:10:40;;;;;;;12.60;5.18;;;;;;;25.76;58.36;101841.69;5047855;28;20116;-69
2023/09/07 10:13:05;;;;;;;7.85;5.35;;;;;;;25.78;58.34;101845.00;5038389;28;20029;-68
2023/09/07 10:15:32;;;;;;;9.35;6.35;;;;;;;25.97;58.51;101850.97;5039642;28;20439;-68
2023/09/07 10:18:11;;;;;;;11.63;6.47;;;;;;;26.12;58.04;101849.34;5034155;28;20025;-68
2023/09/07 10:20:55;;;;;;;11.18;6.43;;;;;;;26.30;57.60;101852.84;5036941;28;20025;-68
2023/09/07 10:23:21;;;;;;;10.63;6.07;;;;;;;26.41;57.24;101849.22;5047349;28;20022;-68
2023/09/07 10:25:51;;;;;;;8.30;6.38;;;;;;;26.37;56.74;101851.63;5040262;28;20033;-68
2023/09/07 10:28:22;;;;;;;11.05;5.90;;;;;;;26.59;56.74;101848.09;5044615;28;20417;-68
2023/09/07 10:31:04;;;;;;;8.93;5.60;;;;;;;26.71;56.21;101840.63;5044508;28;20026;-68
2023/09/07 10:33:31;;;;;;;9.15;5.28;;;;;;;26.88;56.46;101843.25;5048800;28;20029;-66
2023/09/07 10:35:57;;;;;;;7.32;5.50;;;;;;;26.95;56.07;101843.91;5046070;28;20515;-68
2023/09/07 10:38:23;;;;;;;9.52;5.40;;;;;;;27.04;54.85;101834.22;5043753;28;20406;-67
2023/09/07 10:40:57;;;;;;;6.90;5.13;;;;;;;27.09;54.17;101842.44;5045342;28;20029;-68
2023/09/07 10:43:23;;;;;;;7.00;4.93;;;;;;;27.10;53.76;101834.00;5045593;28;20208;-68
2023/09/07 10:45:48;;;;;;;10.60;5.25;;;;;;;27.14;53.55;101831.59;5040332;28;20118;-67
2023/09/07 10:48:13;;;;;;;8.98;5.20;;;;;;;27.13;53.29;101832.66;5038133;28;20026;-68
2023/09/07 10:50:43;;;;;;;8.05;4.78;;;;;;;27.23;54.33;101832.78;5045275;28;20027;-68
2023/09/07 10:53:08;;;;;;;6.85;5.22;;;;;;;27.28;53.39;101819.19;5047922;28;20099;-68
2023/09/07 10:55:38;;;;;;;8.98;4.50;;;;;;;27.30;52.86;101819.75;5042029;28;20612;-68
2023/09/07 10:58:04;;;;;;;7.47;5.30;;;;;;;27.32;53.37;101814.88;5044548;28;20040;-68
2023/09/07 11:00:29;;;;;;;6.30;4.40;;;;;;;27.36;53.82;101807.81;5040846;28;20021;-67
2023/09/07 11:02:54;;;;;;;8.85;4.82;;;;;;;27.48;52.80;101809.56;5043986;28;20433;-68
2023/09/07 11:05:19;;;;;;;7.88;4.70;;;;;;;27.56;52.13;101809.91;5044354;28;20697;-68
2023/09/07 11:07:45;;;;;;;6.35;4.10;;;;;;;27.64;52.04;101804.00;5038213;28;20037;-68
2023/09/07 11:10:10;;;;;;;6.00;4.25;;;;;;;27.70;51.64;101802.94;5040995;28;20028;-68